Time;durP1;ratioP1;P1;durP2;ratioP2;P2;SDS_P1;SDS_P2;PMS_P1;PMS_P2;Temp;Humidity;BMP_temperature;BMP_pressure;BME280_temperature;BME280_humidity;BME280_pressure;Samples;Min_cycle;Max_cycle;Signal;HPM_P1;HPM_P2
2021/04/15 00:01:11;;;;;;;;;;;20.80;27.30;;;;;;497441;239;1042;-70
2021/04/15 00:03:14;;;;;;;;;;;20.90;27.30;;;;;;497459;239;1000;-70
2021/04/15 00:05:14;;;;;;;;;;;20.90;27.40;;;;;;497374;238;1471;-70
2021/04/15 00:07:15;;;;;;;;;;;20.80;27.40;;;;;;497352;239;1050;-70
2021/04/15 00:09:16;;;;;;;;;;;20.90;27.40;;;;;;497366;239;1095;-70
2021/04/15 00:11:18;;;;;;;;;;;20.80;27.30;;;;;;497370;239;1156;-70
2021/04/15 00:13:19;;;;;;;;;;;20.90;27.40;;;;;;497475;239;1125;-70
2021/04/15 00:15:23;;;;;;;;;;;20.90;27.30;;;;;;497388;239;2134;-70
2021/04/15 00:17:24;;;;;;;;;;;20.80;27.30;;;;;;497384;239;1214;-70
2021/04/15 00:19:26;;;;;;;;;;;20.80;27.40;;;;;;497409;239;962;-70
2021/04/15 00:21:27;;;;;;;;;;;21.00;27.20;;;;;;497348;239;1240;-70
2021/04/15 00:23:28;;;;;;;;;;;20.80;27.20;;;;;;497461;239;987;-70
2021/04/15 00:25:29;;;;;;;;;;;20.90;27.30;;;;;;497456;239;1053;-70
2021/04/15 00:27:31;;;;;;;;;;;20.80;27.20;;;;;;497427;239;1185;-70
2021/04/15 00:29:32;;;;;;;;;;;20.80;27.20;;;;;;497477;240;1160;-70
2021/04/15 00:31:33;;;;;;;;;;;20.80;27.20;;;;;;497361;239;1190;-70
2021/04/15 00:33:35;;;;;;;;;;;20.80;27.30;;;;;;497321;239;984;-70
2021/04/15 00:35:36;;;;;;;;;;;20.80;27.30;;;;;;497291;239;2169;-70
2021/04/15 00:37:37;;;;;;;;;;;20.70;27.40;;;;;;497448;239;1175;-70
2021/04/15 00:39:38;;;;;;;;;;;20.70;27.30;;;;;;497411;240;984;-70
2021/04/15 00:41:40;;;;;;;;;;;20.80;27.30;;;;;;497443;239;1213;-70
2021/04/15 00:43:41;;;;;;;;;;;20.80;27.40;;;;;;497450;239;947;-70
2021/04/15 00:45:42;;;;;;;;;;;20.70;27.40;;;;;;497403;239;1181;-70
2021/04/15 00:47:44;;;;;;;;;;;20.70;27.40;;;;;;497410;239;1079;-70
2021/04/15 00:49:45;;;;;;;;;;;20.70;27.40;;;;;;497372;239;1327;-70
2021/04/15 00:51:46;;;;;;;;;;;20.80;27.30;;;;;;497307;239;1193;-70
2021/04/15 00:53:48;;;;;;;;;;;20.70;27.40;;;;;;497449;239;2188;-70
2021/04/15 00:55:49;;;;;;;;;;;20.60;27.30;;;;;;497439;239;940;-70
2021/04/15 00:57:50;;;;;;;;;;;20.70;27.40;;;;;;497366;239;1115;-70
2021/04/15 00:59:51;;;;;;;;;;;20.60;27.40;;;;;;497448;239;1158;-70
2021/04/15 01:01:53;;;;;;;;;;;20.60;27.40;;;;;;497372;239;964;-70
2021/04/15 01:03:54;;;;;;;;;;;20.50;27.40;;;;;;497394;239;1052;-70
2021/04/15 01:05:55;;;;;;;;;;;20.60;27.40;;;;;;497429;239;977;-70
2021/04/15 01:07:56;;;;;;;;;;;20.60;27.50;;;;;;497413;239;1059;-70
2021/04/15 01:09:58;;;;;;;;;;;20.50;27.50;;;;;;497417;239;982;-70
2021/04/15 01:11:59;;;;;;;;;;;20.50;27.50;;;;;;497396;239;1262;-70
2021/04/15 01:14:00;;;;;;;;;;;20.60;27.40;;;;;;497422;239;2189;-70
2021/04/15 01:16:02;;;;;;;;;;;20.60;27.50;;;;;;497327;239;1187;-70
2021/04/15 01:18:03;;;;;;;;;;;20.50;27.50;;;;;;497461;239;1015;-70
2021/04/15 01:20:04;;;;;;;;;;;20.50;27.50;;;;;;497408;239;1032;-70
2021/04/15 01:22:05;;;;;;;;;;;20.60;27.30;;;;;;497370;239;1051;-70
2021/04/15 01:24:07;;;;;;;;;;;20.50;27.50;;;;;;497415;239;1037;-70
2021/04/15 01:26:08;;;;;;;;;;;20.50;27.50;;;;;;497331;235;1208;-70
2021/04/15 01:28:09;;;;;;;;;;;20.40;27.50;;;;;;497376;239;1061;-70
2021/04/15 01:30:10;;;;;;;;;;;20.40;27.60;;;;;;497480;239;1090;-70
2021/04/15 01:32:12;;;;;;;;;;;20.40;27.50;;;;;;497307;239;1212;-70
2021/04/15 01:34:13;;;;;;;;;;;20.40;27.50;;;;;;497364;239;2189;-70
2021/04/15 01:36:14;;;;;;;;;;;20.50;27.50;;;;;;497297;239;1473;-70
2021/04/15 01:38:16;;;;;;;;;;;20.50;27.50;;;;;;497383;239;1198;-70
2021/04/15 01:40:17;;;;;;;;;;;20.40;27.50;;;;;;497439;239;1029;-70
2021/04/15 01:42:18;;;;;;;;;;;20.40;27.40;;;;;;497343;239;1215;-70
2021/04/15 01:44:19;;;;;;;;;;;20.40;27.50;;;;;;497369;239;1031;-70
2021/04/15 01:46:21;;;;;;;;;;;20.30;27.50;;;;;;497238;239;1188;-70
2021/04/15 01:48:22;;;;;;;;;;;20.30;27.50;;;;;;497326;239;1271;-70
2021/04/15 01:50:23;;;;;;;;;;;20.40;27.50;;;;;;497341;239;1118;-70
2021/04/15 01:52:25;;;;;;;;;;;20.30;27.50;;;;;;497310;239;1072;-70
2021/04/15 01:54:26;;;;;;;;;;;20.30;27.50;;;;;;497473;239;2185;-70
2021/04/15 01:56:27;;;;;;;;;;;20.30;27.50;;;;;;497248;239;1223;-70
2021/04/15 01:58:29;;;;;;;;;;;20.40;27.40;;;;;;497452;239;1033;-71
2021/04/15 02:00:30;;;;;;;;;;;20.40;27.40;;;;;;497472;239;1182;-70
2021/04/15 02:02:31;;;;;;;;;;;20.40;27.40;;;;;;497426;239;1049;-70
2021/04/15 02:04:33;;;;;;;;;;;20.40;27.40;;;;;;497447;239;1004;-70
2021/04/15 02:06:34;;;;;;;;;;;20.30;27.40;;;;;;497394;239;1085;-70
2021/04/15 02:08:35;;;;;;;;;;;20.30;27.40;;;;;;497485;239;947;-70
2021/04/15 02:10:37;;;;;;;;;;;20.40;27.40;;;;;;497427;239;1117;-70
2021/04/15 02:12:38;;;;;;;;;;;20.30;27.40;;;;;;497470;239;1045;-69
2021/04/15 02:14:40;;;;;;;;;;;20.30;27.40;;;;;;497464;240;2193;-69
2021/04/15 02:16:40;;;;;;;;;;;20.30;27.30;;;;;;497278;239;1430;-69
2021/04/15 02:18:42;;;;;;;;;;;20.40;27.30;;;;;;497433;239;996;-69
2021/04/15 02:20:43;;;;;;;;;;;20.30;27.30;;;;;;497463;239;973;-70
2021/04/15 02:22:44;;;;;;;;;;;20.30;27.40;;;;;;497393;239;1087;-70
2021/04/15 02:24:46;;;;;;;;;;;20.30;27.30;;;;;;497410;239;948;-70
2021/04/15 02:26:47;;;;;;;;;;;20.30;27.30;;;;;;497295;239;1096;-70
2021/04/15 02:28:48;;;;;;;;;;;20.30;27.30;;;;;;497515;239;1098;-70
2021/04/15 02:30:49;;;;;;;;;;;20.30;27.20;;;;;;497432;236;1324;-72
2021/04/15 02:32:51;;;;;;;;;;;20.40;27.20;;;;;;497415;240;1228;-70
2021/04/15 02:34:52;;;;;;;;;;;20.30;27.30;;;;;;497464;239;2189;-70
2021/04/15 02:36:53;;;;;;;;;;;20.20;27.30;;;;;;497347;239;1098;-70
2021/04/15 02:38:55;;;;;;;;;;;20.10;27.40;;;;;;497373;239;958;-70
2021/04/15 02:40:56;;;;;;;;;;;20.10;27.40;;;;;;497439;239;1206;-70
2021/04/15 02:42:57;;;;;;;;;;;20.10;27.30;;;;;;497436;239;1071;-70
2021/04/15 02:45:01;;;;;;;;;;;20.20;27.40;;;;;;497504;239;975;-70
2021/04/15 02:47:00;;;;;;;;;;;20.10;27.40;;;;;;497303;239;1395;-70
2021/04/15 02:49:01;;;;;;;;;;;20.10;27.40;;;;;;497434;239;964;-70
2021/04/15 02:51:02;;;;;;;;;;;20.20;27.30;;;;;;497392;239;954;-70
2021/04/15 02:53:03;;;;;;;;;;;20.20;27.30;;;;;;497372;239;1089;-70
2021/04/15 02:55:05;;;;;;;;;;;20.10;27.40;;;;;;497376;239;2181;-70
2021/04/15 02:57:06;;;;;;;;;;;20.10;27.30;;;;;;497255;239;1191;-70
2021/04/15 02:59:07;;;;;;;;;;;20.20;27.30;;;;;;497486;239;937;-70
2021/04/15 03:01:09;;;;;;;;;;;20.10;27.30;;;;;;497407;239;1141;-70
2021/04/15 03:03:10;;;;;;;;;;;20.00;27.30;;;;;;497414;239;1068;-70
2021/04/15 03:05:11;;;;;;;;;;;20.10;27.30;;;;;;497396;239;1019;-70
2021/04/15 03:07:12;;;;;;;;;;;20.00;27.40;;;;;;497316;239;1215;-70
2021/04/15 03:09:14;;;;;;;;;;;20.00;27.40;;;;;;497331;239;987;-70
2021/04/15 03:11:15;;;;;;;;;;;19.90;27.40;;;;;;497280;239;1057;-70
2021/04/15 03:13:16;;;;;;;;;;;20.00;27.30;;;;;;497360;239;1154;-70
2021/04/15 03:15:18;;;;;;;;;;;20.10;27.30;;;;;;497359;239;2134;-70
2021/04/15 03:17:19;;;;;;;;;;;20.10;27.30;;;;;;497245;239;1164;-70
2021/04/15 03:19:20;;;;;;;;;;;20.00;27.30;;;;;;497393;239;1064;-70
2021/04/15 03:21:21;;;;;;;;;;;20.00;27.20;;;;;;497235;239;1365;-70
2021/04/15 03:23:23;;;;;;;;;;;20.20;27.20;;;;;;497348;239;1104;-70
2021/04/15 03:25:24;;;;;;;;;;;20.20;27.00;;;;;;497341;239;1015;-70
2021/04/15 03:27:25;;;;;;;;;;;20.10;27.20;;;;;;497272;239;1043;-70
2021/04/15 03:29:28;;;;;;;;;;;20.00;27.20;;;;;;497468;239;984;-70
2021/04/15 03:31:28;;;;;;;;;;;20.00;27.20;;;;;;497277;239;1469;-70
2021/04/15 03:33:29;;;;;;;;;;;20.10;27.10;;;;;;497376;239;941;-70
2021/04/15 03:35:30;;;;;;;;;;;20.00;27.20;;;;;;497462;239;2174;-70
2021/04/15 03:37:32;;;;;;;;;;;20.00;27.20;;;;;;497377;239;1028;-70
2021/04/15 03:39:33;;;;;;;;;;;20.00;27.10;;;;;;497441;239;1099;-70
2021/04/15 03:41:34;;;;;;;;;;;20.00;27.10;;;;;;497258;239;1190;-70
2021/04/15 03:43:36;;;;;;;;;;;20.00;27.20;;;;;;497370;239;990;-70
2021/04/15 03:45:37;;;;;;;;;;;19.90;27.20;;;;;;497424;239;1075;-70
2021/04/15 03:47:38;;;;;;;;;;;20.00;27.10;;;;;;497380;239;1210;-70
2021/04/15 03:49:39;;;;;;;;;;;19.90;27.20;;;;;;497503;239;971;-70
2021/04/15 03:51:41;;;;;;;;;;;19.90;27.20;;;;;;497362;239;1230;-70
2021/04/15 03:53:42;;;;;;;;;;;19.90;27.10;;;;;;497504;239;963;-70
2021/04/15 03:55:43;;;;;;;;;;;20.00;27.10;;;;;;497404;239;2181;-70
2021/04/15 03:57:44;;;;;;;;;;;20.00;27.20;;;;;;497290;239;1111;-70
2021/04/15 03:59:46;;;;;;;;;;;19.90;27.20;;;;;;497426;239;962;-70
2021/04/15 04:01:47;;;;;;;;;;;19.80;27.10;;;;;;497310;239;1327;-69
2021/04/15 04:03:48;;;;;;;;;;;20.00;27.10;;;;;;497404;239;1031;-70
2021/04/15 04:05:50;;;;;;;;;;;19.80;27.20;;;;;;497301;239;1087;-70
2021/04/15 04:07:51;;;;;;;;;;;19.70;27.20;;;;;;497234;239;1142;-70
2021/04/15 04:09:52;;;;;;;;;;;19.70;27.20;;;;;;497454;239;1050;-70
2021/04/15 04:11:53;;;;;;;;;;;19.80;27.20;;;;;;497195;239;1188;-70
2021/04/15 04:13:55;;;;;;;;;;;19.80;27.10;;;;;;497468;239;1011;-70
2021/04/15 04:15:56;;;;;;;;;;;19.70;27.10;;;;;;497281;239;2185;-69
2021/04/15 04:17:57;;;;;;;;;;;19.80;27.00;;;;;;497318;239;1141;-70
2021/04/15 04:19:58;;;;;;;;;;;19.90;27.10;;;;;;497404;239;952;-70
2021/04/15 04:22:00;;;;;;;;;;;19.90;27.00;;;;;;497062;239;1224;-70
2021/04/15 04:24:01;;;;;;;;;;;19.80;27.00;;;;;;497378;239;948;-70
2021/04/15 04:26:02;;;;;;;;;;;19.90;27.00;;;;;;497307;239;1160;-70
2021/04/15 04:28:04;;;;;;;;;;;19.80;26.90;;;;;;497221;240;1167;-69
2021/04/15 04:30:05;;;;;;;;;;;19.90;26.90;;;;;;497427;239;1040;-70
2021/04/15 04:32:06;;;;;;;;;;;20.00;26.80;;;;;;497170;239;1195;-70
2021/04/15 04:34:07;;;;;;;;;;;20.00;26.80;;;;;;497300;239;1116;-70
2021/04/15 04:36:09;;;;;;;;;;;19.90;26.90;;;;;;496999;240;2192;-70
2021/04/15 04:38:10;;;;;;;;;;;19.90;26.80;;;;;;497208;239;1071;-70
2021/04/15 04:40:11;;;;;;;;;;;19.80;26.80;;;;;;497283;239;1357;-70
2021/04/15 04:42:13;;;;;;;;;;;19.90;26.80;;;;;;497149;239;1242;-70
2021/04/15 04:44:14;;;;;;;;;;;19.80;26.90;;;;;;497231;239;1061;-70
2021/04/15 04:46:15;;;;;;;;;;;19.80;26.90;;;;;;497118;239;1300;-70
2021/04/15 04:48:16;;;;;;;;;;;19.80;26.70;;;;;;497186;239;1245;-70
2021/04/15 04:50:18;;;;;;;;;;;19.90;26.80;;;;;;497179;239;1118;-70
2021/04/15 04:52:19;;;;;;;;;;;19.90;26.80;;;;;;497060;239;1206;-70
2021/04/15 04:54:20;;;;;;;;;;;19.90;26.80;;;;;;497086;239;1050;-69
2021/04/15 04:56:22;;;;;;;;;;;19.90;26.80;;;;;;497025;239;2181;-69
2021/04/15 04:58:23;;;;;;;;;;;19.90;26.70;;;;;;496997;239;1087;-70
2021/04/15 05:00:24;;;;;;;;;;;19.80;26.80;;;;;;497106;239;1049;-70
2021/04/15 05:02:25;;;;;;;;;;;19.90;26.80;;;;;;497071;239;1481;-70
2021/04/15 05:04:27;;;;;;;;;;;19.90;26.70;;;;;;497103;239;1059;-70
2021/04/15 05:06:28;;;;;;;;;;;19.90;26.70;;;;;;496957;239;1158;-70
2021/04/15 05:08:29;;;;;;;;;;;19.80;26.70;;;;;;497042;239;1024;-70
2021/04/15 05:10:31;;;;;;;;;;;19.80;26.70;;;;;;497067;239;1022;-70
2021/04/15 05:12:32;;;;;;;;;;;19.90;26.70;;;;;;497035;239;1062;-70
2021/04/15 05:14:33;;;;;;;;;;;19.80;26.70;;;;;;497150;239;1057;-70
2021/04/15 05:16:34;;;;;;;;;;;19.70;26.70;;;;;;497025;239;2173;-70
2021/04/15 05:18:36;;;;;;;;;;;19.80;26.70;;;;;;497065;240;1270;-70
2021/04/15 05:20:37;;;;;;;;;;;19.80;26.70;;;;;;496988;239;1056;-70
2021/04/15 05:22:38;;;;;;;;;;;19.70;26.70;;;;;;497052;240;1038;-70
2021/04/15 05:24:39;;;;;;;;;;;20.00;26.50;;;;;;497072;239;1473;-71
2021/04/15 05:26:41;;;;;;;;;;;19.90;26.50;;;;;;496954;239;1083;-70
2021/04/15 05:28:42;;;;;;;;;;;19.90;26.60;;;;;;497076;240;1186;-70
2021/04/15 05:30:45;;;;;;;;;;;19.80;26.60;;;;;;497111;239;1098;-70
2021/04/15 05:32:46;;;;;;;;;;;20.00;26.40;;;;;;497120;239;1145;-70
2021/04/15 05:34:47;;;;;;;;;;;19.90;26.50;;;;;;497064;239;1055;-70
2021/04/15 05:36:49;;;;;;;;;;;19.90;26.50;;;;;;496931;239;2185;-70
2021/04/15 05:38:50;;;;;;;;;;;19.90;26.40;;;;;;497071;239;1012;-70
2021/04/15 05:40:51;;;;;;;;;;;20.00;26.40;;;;;;497033;239;1042;-70
2021/04/15 05:42:52;;;;;;;;;;;19.90;26.40;;;;;;496981;239;1022;-70
2021/04/15 05:44:54;;;;;;;;;;;19.90;26.50;;;;;;496952;239;1154;-70
2021/04/15 05:46:55;;;;;;;;;;;19.90;26.40;;;;;;496919;240;1215;-70
2021/04/15 05:48:56;;;;;;;;;;;19.90;26.50;;;;;;496899;239;1101;-70
2021/04/15 05:50:57;;;;;;;;;;;19.90;26.40;;;;;;496960;239;1061;-70
2021/04/15 05:52:59;;;;;;;;;;;20.00;26.40;;;;;;496986;239;1069;-70
2021/04/15 05:55:00;;;;;;;;;;;20.00;26.30;;;;;;496950;239;1043;-70
2021/04/15 05:57:01;;;;;;;;;;;20.00;26.40;;;;;;496959;239;2122;-70
2021/04/15 05:59:03;;;;;;;;;;;20.00;26.30;;;;;;497008;239;1050;-70
2021/04/15 06:01:04;;;;;;;;;;;20.10;26.20;;;;;;497019;239;1171;-70
2021/04/15 06:03:05;;;;;;;;;;;20.10;26.20;;;;;;496838;240;1299;-70
2021/04/15 06:05:06;;;;;;;;;;;20.10;26.20;;;;;;497047;239;1105;-70
2021/04/15 06:07:08;;;;;;;;;;;20.10;26.20;;;;;;496937;239;1103;-70
2021/04/15 06:09:09;;;;;;;;;;;20.10;26.20;;;;;;497019;239;1026;-70
2021/04/15 06:11:10;;;;;;;;;;;20.10;26.20;;;;;;496904;239;1073;-70
2021/04/15 06:13:12;;;;;;;;;;;20.00;26.30;;;;;;496856;239;1112;-70
2021/04/15 06:15:13;;;;;;;;;;;20.00;26.20;;;;;;496811;239;1389;-70
2021/04/15 06:17:14;;;;;;;;;;;20.10;26.20;;;;;;496747;239;2186;-70
2021/04/15 06:19:15;;;;;;;;;;;20.20;26.20;;;;;;496938;239;1165;-70
2021/04/15 06:21:17;;;;;;;;;;;20.10;26.20;;;;;;496859;235;1371;-70
2021/04/15 06:23:18;;;;;;;;;;;20.10;26.20;;;;;;496821;239;1133;-70
2021/04/15 06:25:19;;;;;;;;;;;20.30;26.20;;;;;;496858;239;1055;-70
2021/04/15 06:27:20;;;;;;;;;;;20.10;26.20;;;;;;496738;239;1294;-70
2021/04/15 06:29:22;;;;;;;;;;;20.20;26.20;;;;;;496879;239;1075;-70
2021/04/15 06:31:23;;;;;;;;;;;20.10;26.20;;;;;;496877;239;1107;-70
2021/04/15 06:33:24;;;;;;;;;;;20.10;26.20;;;;;;496836;239;1136;-70
2021/04/15 06:35:26;;;;;;;;;;;20.10;26.30;;;;;;496755;239;1199;-70
2021/04/15 06:37:27;;;;;;;;;;;20.20;26.30;;;;;;496818;239;2177;-70
2021/04/15 06:39:28;;;;;;;;;;;20.10;26.30;;;;;;496804;239;1209;-68
2021/04/15 06:41:30;;;;;;;;;;;20.20;26.20;;;;;;496622;239;1166;-70
2021/04/15 06:43:31;;;;;;;;;;;20.20;26.30;;;;;;496700;239;1032;-70
2021/04/15 06:45:33;;;;;;;;;;;20.10;26.30;;;;;;496845;239;1243;-70
2021/04/15 06:47:34;;;;;;;;;;;20.10;26.30;;;;;;496683;239;1068;-70
2021/04/15 06:49:35;;;;;;;;;;;20.20;26.30;;;;;;496764;239;1200;-70
2021/04/15 06:51:36;;;;;;;;;;;20.20;26.20;;;;;;496579;240;1140;-70
2021/04/15 06:53:38;;;;;;;;;;;20.10;26.30;;;;;;496622;239;1088;-70
2021/04/15 06:55:39;;;;;;;;;;;19.90;26.40;;;;;;496671;239;1101;-70
2021/04/15 06:57:40;;;;;;;;;;;19.90;26.60;;;;;;496655;239;2126;-68
2021/04/15 06:59:41;;;;;;;;;;;19.80;26.70;;;;;;496713;239;1040;-68
2021/04/15 07:01:43;;;;;;;;;;;19.80;26.80;;;;;;496674;239;1388;-68
2021/04/15 07:03:44;;;;;;;;;;;19.80;26.80;;;;;;496691;239;1148;-68
2021/04/15 07:05:45;;;;;;;;;;;19.70;26.80;;;;;;496631;239;1287;-69
2021/04/15 07:07:47;;;;;;;;;;;19.60;26.80;;;;;;496595;239;1217;-68
2021/04/15 07:09:48;;;;;;;;;;;19.70;26.90;;;;;;496531;239;1046;-69
2021/04/15 07:11:49;;;;;;;;;;;19.70;26.90;;;;;;496389;239;1149;-68
2021/04/15 07:13:50;;;;;;;;;;;19.70;26.80;;;;;;496667;239;1208;-68
2021/04/15 07:15:52;;;;;;;;;;;19.80;26.80;;;;;;496550;239;2181;-68
2021/04/15 07:17:53;;;;;;;;;;;19.80;26.80;;;;;;496655;239;1097;-68
2021/04/15 07:19:54;;;;;;;;;;;19.90;26.70;;;;;;496637;239;1164;-68
2021/04/15 07:21:56;;;;;;;;;;;19.90;26.70;;;;;;496461;239;1227;-68
2021/04/15 07:23:57;;;;;;;;;;;19.90;26.60;;;;;;496660;239;1338;-68
2021/04/15 07:25:58;;;;;;;;;;;19.90;26.70;;;;;;496733;239;1102;-68
2021/04/15 07:27:59;;;;;;;;;;;20.10;26.70;;;;;;496535;239;1051;-68
2021/04/15 07:30:01;;;;;;;;;;;20.00;26.70;;;;;;496537;239;1363;-68
2021/04/15 07:32:02;;;;;;;;;;;20.00;26.70;;;;;;496615;239;1102;-68
2021/04/15 07:34:04;;;;;;;;;;;20.00;26.70;;;;;;496900;239;1160;-68
2021/04/15 07:36:04;;;;;;;;;;;20.10;26.70;;;;;;496738;239;2176;-68
2021/04/15 07:38:06;;;;;;;;;;;20.10;26.70;;;;;;496957;239;1049;-68
2021/04/15 07:40:07;;;;;;;;;;;20.10;26.70;;;;;;496319;239;1148;-68
2021/04/15 07:42:09;;;;;;;;;;;20.20;26.70;;;;;;496405;239;1187;-68
2021/04/15 07:44:10;;;;;;;;;;;20.20;26.70;;;;;;496354;239;1219;-69
2021/04/15 07:46:11;;;;;;;;;;;20.10;26.70;;;;;;496216;239;1223;-68
2021/04/15 07:48:13;;;;;;;;;;;20.10;26.70;;;;;;496473;239;1150;-68
2021/04/15 07:50:14;;;;;;;;;;;20.20;26.70;;;;;;496539;239;1207;-70
2021/04/15 07:52:15;;;;;;;;;;;20.10;26.70;;;;;;496501;239;1357;-70
2021/04/15 07:54:16;;;;;;;;;;;20.20;26.70;;;;;;496605;239;1084;-70
2021/04/15 07:56:18;;;;;;;;;;;20.20;26.70;;;;;;496610;239;2189;-70
2021/04/15 07:58:20;;;;;;;;;;;20.20;26.70;;;;;;496675;239;1309;-70
2021/04/15 08:00:20;;;;;;;;;;;20.30;26.80;;;;;;496800;239;1418;-70
2021/04/15 08:02:21;;;;;;;;;;;20.30;26.80;;;;;;496467;239;1375;-70
2021/04/15 08:04:23;;;;;;;;;;;20.20;26.70;;;;;;496628;239;1257;-70
2021/04/15 08:06:24;;;;;;;;;;;20.20;26.80;;;;;;496669;239;1082;-70
2021/04/15 08:08:25;;;;;;;;;;;20.10;26.80;;;;;;496506;239;1147;-69
2021/04/15 08:10:27;;;;;;;;;;;20.10;26.90;;;;;;496502;239;1306;-70
2021/04/15 08:12:28;;;;;;;;;;;20.10;26.90;;;;;;495807;239;1134;-70
2021/04/15 08:14:29;;;;;;;;;;;20.10;26.90;;;;;;496577;239;1054;-70
2021/04/15 08:16:31;;;;;;;;;;;20.10;26.90;;;;;;496666;239;2181;-70
2021/04/15 08:18:32;;;;;;;;;;;20.00;26.90;;;;;;496653;239;1045;-70
2021/04/15 08:20:33;;;;;;;;;;;20.10;26.90;;;;;;496621;239;1220;-70
2021/04/15 08:22:35;;;;;;;;;;;20.10;27.00;;;;;;496522;239;1310;-70
2021/04/15 08:24:36;;;;;;;;;;;20.10;27.00;;;;;;496509;239;1076;-70
2021/04/15 08:26:37;;;;;;;;;;;20.10;26.90;;;;;;496102;240;1184;-70
2021/04/15 08:28:39;;;;;;;;;;;20.10;26.90;;;;;;496301;239;1052;-70
2021/04/15 08:30:40;;;;;;;;;;;20.00;26.90;;;;;;496534;239;1082;-70
2021/04/15 08:32:41;;;;;;;;;;;20.00;27.00;;;;;;496568;239;1213;-70
2021/04/15 08:34:43;;;;;;;;;;;20.00;27.00;;;;;;496599;239;1108;-70
2021/04/15 08:36:44;;;;;;;;;;;20.00;27.00;;;;;;496467;239;2197;-70
2021/04/15 08:38:45;;;;;;;;;;;20.10;27.00;;;;;;496577;239;1136;-70
2021/04/15 08:40:46;;;;;;;;;;;20.20;27.00;;;;;;496296;239;1089;-70
2021/04/15 08:42:48;;;;;;;;;;;20.10;26.90;;;;;;496500;239;1129;-70
2021/04/15 08:44:49;;;;;;;;;;;20.20;26.90;;;;;;496447;239;1098;-71
2021/04/15 08:46:52;;;;;;;;;;;20.10;26.90;;;;;;496322;239;1321;-70
2021/04/15 08:48:52;;;;;;;;;;;20.10;26.90;;;;;;496196;239;1285;-70
2021/04/15 08:50:54;;;;;;;;;;;20.30;26.80;;;;;;496609;239;1126;-70
2021/04/15 08:52:54;;;;;;;;;;;20.30;26.70;;;;;;496591;239;1339;-70
2021/04/15 08:54:55;;;;;;;;;;;20.50;26.50;;;;;;496552;239;1020;-70
2021/04/15 08:56:57;;;;;;;;;;;20.60;26.40;;;;;;496474;236;2189;-70
2021/04/15 08:58:58;;;;;;;;;;;20.70;26.30;;;;;;496560;239;1099;-70
2021/04/15 09:00:59;;;;;;;;;;;20.80;26.20;;;;;;496489;239;1311;-70
2021/04/15 09:03:00;;;;;;;;;;;21.00;26.10;;;;;;497270;238;1274;-70
2021/04/15 09:05:02;;;;;;;;;;;21.00;26.00;;;;;;496538;239;1134;-70
2021/04/15 09:07:03;;;;;;;;;;;21.00;25.90;;;;;;496617;239;1142;-70
2021/04/15 09:09:04;;;;;;;;;;;21.10;25.80;;;;;;496561;239;1076;-70
2021/04/15 09:11:05;;;;;;;;;;;21.10;25.80;;;;;;496605;239;1135;-70
2021/04/15 09:13:07;;;;;;;;;;;21.20;25.70;;;;;;496651;239;1028;-67
2021/04/15 09:15:09;;;;;;;;;;;21.20;25.60;;;;;;496427;239;1165;-68
2021/04/15 09:17:10;;;;;;;;;;;21.30;25.50;;;;;;496361;239;2173;-70
2021/04/15 09:19:12;;;;;;;;;;;21.20;25.40;;;;;;496676;239;1056;-70
2021/04/15 09:21:13;;;;;;;;;;;21.30;25.40;;;;;;496569;239;1320;-68
2021/04/15 09:23:14;;;;;;;;;;;21.30;25.30;;;;;;496650;239;1218;-68
2021/04/15 09:25:15;;;;;;;;;;;21.30;25.20;;;;;;496544;239;1053;-68
2021/04/15 09:27:17;;;;;;;;;;;21.50;25.20;;;;;;496489;239;1190;-69
2021/04/15 09:29:18;;;;;;;;;;;21.50;25.10;;;;;;496455;239;1121;-68
2021/04/15 09:31:19;;;;;;;;;;;21.40;25.10;;;;;;496528;239;1210;-68
2021/04/15 09:33:20;;;;;;;;;;;21.40;25.00;;;;;;496929;239;1133;-69
2021/04/15 09:35:22;;;;;;;;;;;21.40;25.00;;;;;;496539;239;1277;-68
2021/04/15 09:37:23;;;;;;;;;;;21.40;25.00;;;;;;496378;239;2177;-68
2021/04/15 09:39:24;;;;;;;;;;;21.40;25.00;;;;;;496428;239;1138;-68
2021/04/15 09:41:26;;;;;;;;;;;21.40;25.00;;;;;;496410;239;1155;-68
2021/04/15 09:43:27;;;;;;;;;;;21.30;25.00;;;;;;496463;239;1291;-68
2021/04/15 09:45:28;;;;;;;;;;;21.40;25.00;;;;;;496486;239;1072;-68
2021/04/15 09:47:29;;;;;;;;;;;21.40;25.00;;;;;;496344;239;1246;-68
2021/04/15 09:49:31;;;;;;;;;;;21.40;24.90;;;;;;496541;239;1346;-68
2021/04/15 09:51:32;;;;;;;;;;;21.50;24.80;;;;;;496638;239;1276;-68
2021/04/15 09:53:33;;;;;;;;;;;21.50;24.80;;;;;;496501;239;1065;-68
2021/04/15 09:55:35;;;;;;;;;;;21.50;24.80;;;;;;496586;239;1116;-70
2021/04/15 09:57:36;;;;;;;;;;;21.60;24.80;;;;;;496754;239;2182;-70
2021/04/15 09:59:37;;;;;;;;;;;21.60;24.80;;;;;;496541;239;1093;-68
2021/04/15 10:01:39;;;;;;;;;;;21.60;24.80;;;;;;496506;239;1180;-69
2021/04/15 10:03:40;;;;;;;;;;;21.60;24.80;;;;;;496708;239;1051;-68
2021/04/15 10:05:41;;;;;;;;;;;21.60;24.80;;;;;;496572;236;1274;-69
2021/04/15 10:07:42;;;;;;;;;;;21.70;24.80;;;;;;496602;239;1184;-69
2021/04/15 10:09:44;;;;;;;;;;;21.70;24.80;;;;;;496567;239;1172;-69
2021/04/15 10:11:45;;;;;;;;;;;21.60;24.80;;;;;;496618;239;1076;-69
2021/04/15 10:13:47;;;;;;;;;;;21.60;24.80;;;;;;496504;239;1035;-69
2021/04/15 10:15:48;;;;;;;;;;;21.70;24.90;;;;;;496315;239;1094;-68
2021/04/15 10:17:49;;;;;;;;;;;21.50;25.00;;;;;;496304;239;2173;-68
2021/04/15 10:19:50;;;;;;;;;;;21.60;25.00;;;;;;496379;239;1143;-69
2021/04/15 10:21:52;;;;;;;;;;;21.60;25.10;;;;;;496129;239;1205;-68
2021/04/15 10:23:53;;;;;;;;;;;21.50;25.10;;;;;;496364;239;1074;-69
2021/04/15 10:25:55;;;;;;;;;;;21.50;25.30;;;;;;496463;239;1174;-68
2021/04/15 10:27:56;;;;;;;;;;;21.50;25.40;;;;;;496316;239;1314;-69
2021/04/15 10:29:57;;;;;;;;;;;21.50;25.50;;;;;;496372;239;1090;-69
2021/04/15 10:31:58;;;;;;;;;;;21.50;25.50;;;;;;496310;239;1242;-69
2021/04/15 10:33:59;;;;;;;;;;;21.50;25.60;;;;;;496448;239;1118;-69
2021/04/15 10:36:01;;;;;;;;;;;21.50;25.60;;;;;;496481;239;1218;-69
2021/04/15 10:38:02;;;;;;;;;;;21.40;25.70;;;;;;496479;239;2205;-68
2021/04/15 10:40:04;;;;;;;;;;;21.30;25.70;;;;;;496368;239;1097;-68
2021/04/15 10:42:05;;;;;;;;;;;21.30;25.80;;;;;;496307;239;1126;-68
2021/04/15 10:44:06;;;;;;;;;;;21.30;25.90;;;;;;496439;239;1187;-68
2021/04/15 10:46:07;;;;;;;;;;;21.30;26.00;;;;;;496319;239;1285;-68
2021/04/15 10:48:09;;;;;;;;;;;21.30;26.00;;;;;;497341;239;1375;-68
2021/04/15 10:50:10;;;;;;;;;;;21.30;26.00;;;;;;497247;239;1113;-68
2021/04/15 10:52:11;;;;;;;;;;;21.20;26.00;;;;;;496302;239;1167;-70
2021/04/15 10:54:12;;;;;;;;;;;21.30;25.90;;;;;;495889;239;1110;-70
2021/04/15 10:56:14;;;;;;;;;;;21.30;26.00;;;;;;496610;239;1159;-70
2021/04/15 10:58:15;;;;;;;;;;;21.30;25.90;;;;;;496682;239;2193;-70
2021/04/15 11:00:16;;;;;;;;;;;21.40;25.90;;;;;;496555;239;1114;-69
2021/04/15 11:02:18;;;;;;;;;;;21.40;25.90;;;;;;496575;239;1174;-68
2021/04/15 11:04:21;;;;;;;;;;;21.30;26.00;;;;;;496615;239;1125;-69
2021/04/15 11:06:20;;;;;;;;;;;21.40;25.90;;;;;;496553;239;1327;-69
2021/04/15 11:08:21;;;;;;;;;;;21.30;25.90;;;;;;496469;239;1148;-68
2021/04/15 11:10:23;;;;;;;;;;;21.30;25.80;;;;;;496439;239;1114;-68
2021/04/15 11:12:24;;;;;;;;;;;21.40;25.90;;;;;;496651;239;1103;-69
2021/04/15 11:14:25;;;;;;;;;;;21.40;25.90;;;;;;496549;239;1003;-69
2021/04/15 11:16:26;;;;;;;;;;;21.40;25.90;;;;;;496529;239;1306;-69
2021/04/15 11:18:28;;;;;;;;;;;21.50;25.80;;;;;;496530;239;2184;-69
2021/04/15 11:20:29;;;;;;;;;;;21.40;25.80;;;;;;496528;239;1116;-69
2021/04/15 11:22:31;;;;;;;;;;;21.50;25.80;;;;;;496600;240;1172;-68
2021/04/15 11:24:32;;;;;;;;;;;21.50;25.80;;;;;;496497;239;1272;-69
2021/04/15 11:26:33;;;;;;;;;;;21.50;25.90;;;;;;496723;240;1208;-68
2021/04/15 11:28:35;;;;;;;;;;;21.80;25.70;;;;;;496977;239;1114;-69
2021/04/15 11:30:36;;;;;;;;;;;21.70;25.70;;;;;;496601;239;1200;-68
2021/04/15 11:32:37;;;;;;;;;;;21.70;25.70;;;;;;496558;239;1084;-69
2021/04/15 11:34:38;;;;;;;;;;;21.70;25.60;;;;;;496593;239;1125;-69
2021/04/15 11:36:40;;;;;;;;;;;21.90;25.60;;;;;;496493;239;1216;-69
2021/04/15 11:38:41;;;;;;;;;;;21.80;25.50;;;;;;496413;239;2185;-69
2021/04/15 11:40:43;;;;;;;;;;;21.90;25.30;;;;;;496387;239;1063;-69
2021/04/15 11:42:44;;;;;;;;;;;22.00;25.20;;;;;;496445;239;1167;-69
2021/04/15 11:44:47;;;;;;;;;;;22.00;25.10;;;;;;496415;239;1175;-69
2021/04/15 11:46:46;;;;;;;;;;;22.10;25.00;;;;;;496350;236;1540;-69
2021/04/15 11:48:48;;;;;;;;;;;22.20;25.00;;;;;;496471;239;1037;-70
2021/04/15 11:50:49;;;;;;;;;;;22.20;24.90;;;;;;496491;239;1208;-69
2021/04/15 11:52:53;;;;;;;;;;;22.30;24.80;;;;;;496672;235;1276;-69
2021/04/15 11:54:52;;;;;;;;;;;22.30;24.80;;;;;;496357;239;1390;-69
2021/04/15 11:56:53;;;;;;;;;;;22.30;24.80;;;;;;496520;239;1052;-69